Golden Compass — V7QZ4 — position and weather

sailwx.info

Track history (hours):
 
Tides and Currents Weather Stations Pressure Air Temp Water Temp Dewpoint Dewpoint Depression Visibility Wind Speed Wind Dir Waves Ship Positions

Golden Compass

Last reported at 2015-Apr-13 14:23 UTC. Time now 2015-May-03 16:53 UTC.
Position N 25°47' W 080°04'.
Warning: this ship's position is 20 days out of date.

Length 46 m; draft 2.7 m.

Type: Pleasure craft. MMSI: 538070597.

Date/timePositionNaut miles runAvg speedWind from/ knotsBaromVisibWave heightAir tempDewpointWater temp
2015-Apr-13 14:23N 25°47' W 080°04'8 6.9
2015-Apr-13 13:14N 25°55' W 080°03'5 6.1
2015-Apr-13 12:29N 25°59' W 080°03'5 5.4
2015-Apr-13 11:29N 26°05' W 080°04'4 4.6
2015-Apr-13 10:32N 26°07' W 080°08'2 2.3
2015-Apr-13 09:32N 26°06' W 080°10'0 0.3
2015-Apr-13 08:32N 26°06' W 080°10'0 0.0
2015-Apr-13 07:32N 26°06' W 080°10'0 0.0
2015-Apr-13 06:32N 26°06' W 080°10'0 0.0
2015-Apr-13 05:32N 26°06' W 080°10'0 0.0
2015-Apr-13 04:32N 26°06' W 080°10'0 0.0
2015-Apr-13 03:23N 26°06' W 080°10'0 0.0
2015-Apr-13 02:32N 26°06' W 080°10'0 0.0
2015-Apr-13 01:26N 26°06' W 080°10'0 0.0
2015-Apr-13 00:26N 26°06' W 080°10'0 0.0
2015-Apr-12 23:26N 26°06' W 080°10'0 0.0
2015-Apr-12 22:26N 26°06' W 080°10'0 0.0
2015-Apr-12 21:29N 26°06' W 080°10'0 0.0
2015-Apr-12 20:29N 26°06' W 080°10'0 0.0
2015-Apr-12 19:29N 26°06' W 080°10'0 0.0
2015-Apr-12 18:32N 26°06' W 080°10'0 0.0
2015-Apr-12 17:29N 26°06' W 080°10'0 0.0
2015-Apr-12 16:32N 26°06' W 080°10'0 0.0
2015-Apr-12 15:32N 26°06' W 080°10'0 0.0
2015-Apr-12 14:32N 26°06' W 080°10'0 0.0
2015-Apr-12 13:32N 26°06' W 080°10'0 0.0
2015-Apr-12 12:23N 26°06' W 080°10'0 0.0
2015-Apr-12 11:26N 26°06' W 080°10'0 0.0
2015-Apr-12 10:11N 26°06' W 080°10'0 0.0
2015-Apr-12 09:26N 26°06' W 080°10'0 0.0
2015-Apr-12 08:23N 26°06' W 080°10'0 0.0
2015-Apr-12 07:26N 26°06' W 080°10'0 0.0
2015-Apr-12 06:29N 26°06' W 080°10'0 0.0
2015-Apr-12 05:26N 26°06' W 080°10'0 0.0
2015-Apr-12 04:29N 26°06' W 080°10'0 0.0
2015-Apr-12 03:29N 26°06' W 080°10'0 0.0
2015-Apr-12 02:32N 26°06' W 080°10'0 0.0
2015-Apr-12 01:20N 26°06' W 080°10'0 0.0
2015-Apr-12 00:32N 26°06' W 080°10'0 0.0
2015-Apr-11 23:32N 26°06' W 080°10'0 0.0
2015-Apr-11 22:23N 26°06' W 080°10'0 0.0
2015-Apr-11 21:32N 26°06' W 080°10'0 0.0
2015-Apr-11 20:32N 26°06' W 080°10'0 0.0
2015-Apr-11 19:20N 26°06' W 080°10'0 0.0
2015-Apr-11 18:26N 26°06' W 080°10'0 0.0
2015-Apr-11 17:23N 26°06' W 080°10'0 0.0
2015-Apr-11 16:29N 26°06' W 080°10'0 0.0
2015-Apr-11 15:26N 26°06' W 080°10'0 0.0
2015-Apr-11 14:29N 26°06' W 080°10'0 0.0
2015-Apr-11 13:29N 26°06' W 080°10'0 0.0
2015-Apr-11 12:32N 26°06' W 080°10'0 0.0
2015-Apr-11 11:29N 26°06' W 080°10'0 0.0
2015-Apr-11 10:32N 26°06' W 080°10'0 0.0
2015-Apr-11 09:29N 26°06' W 080°10'0 0.0
2015-Apr-11 08:29N 26°06' W 080°10'0 0.0
2015-Apr-11 07:32N 26°06' W 080°10'0 0.0
2015-Apr-11 06:23N 26°06' W 080°10'0 0.0
2015-Apr-11 04:23N 26°06' W 080°10'0 0.0
2015-Apr-11 03:26N 26°06' W 080°10'0 0.0
2015-Apr-11 02:26N 26°06' W 080°10'0 0.0
2015-Apr-11 01:29N 26°06' W 080°10'0 0.0
2015-Apr-11 00:29N 26°06' W 080°10'0 0.0
2015-Apr-10 23:29N 26°06' W 080°10'0 0.0
2015-Apr-10 22:29N 26°06' W 080°10'0 0.0
2015-Apr-10 21:32N 26°06' W 080°10'0 0.0
2015-Apr-10 20:32N 26°06' W 080°10'0 0.0
2015-Apr-10 19:32N 26°06' W 080°10'0 0.0
2015-Apr-10 18:32N 26°06' W 080°10'0 0.0
2015-Apr-10 17:32N 26°06' W 080°10'0 0.0
2015-Apr-10 16:32N 26°06' W 080°10'0 0.0
2015-Apr-10 15:32N 26°06' W 080°10'0 0.0
2015-Apr-10 14:23N 26°06' W 080°10'0 0.0
2015-Apr-10 13:23N 26°06' W 080°10'0 0.0
2015-Apr-10 12:26N 26°06' W 080°10'0 0.0
2015-Apr-10 11:23N 26°06' W 080°10'0 0.0
2015-Apr-10 10:29N 26°06' W 080°10'0 0.0
2015-Apr-10 09:26N 26°06' W 080°10'0 0.0
2015-Apr-10 08:29N 26°06' W 080°10'0 0.0
2015-Apr-10 07:29N 26°06' W 080°10'0 0.0
2015-Apr-10 06:32N 26°06' W 080°10'0 0.0
2015-Apr-10 05:29N 26°06' W 080°10'0 0.0
2015-Apr-10 04:29N 26°06' W 080°10'0 0.0
2015-Apr-10 03:28N 26°06' W 080°10'0 0.0
2015-Apr-10 02:32N 26°06' W 080°10'0 0.0
2015-Apr-10 01:32N 26°06' W 080°10'0 0.0
2015-Apr-10 00:32N 26°06' W 080°10'0 0.0
2015-Apr-09 23:23N 26°06' W 080°10'0 0.0
2015-Apr-09 22:26N 26°06' W 080°10'0 0.0
2015-Apr-09 21:23N 26°06' W 080°10'0 0.0
2015-Apr-09 20:25N 26°06' W 080°10'0 0.0
2015-Apr-09 19:23N 26°06' W 080°10'0 0.0
2015-Apr-09 18:29N 26°06' W 080°10'0 0.0
2015-Apr-09 17:29N 26°06' W 080°10'0 0.0
2015-Apr-09 16:29N 26°06' W 080°10'0 0.0
2015-Apr-09 15:32N 26°06' W 080°10'0 0.0
2015-Apr-09 14:28N 26°06' W 080°10'0 0.0
2015-Apr-09 13:28N 26°06' W 080°10'0 0.0
2015-Apr-09 12:20N 26°06' W 080°10'0 0.0
2015-Apr-09 11:31N 26°06' W 080°10'0 0.0
2015-Apr-09 10:16N 26°06' W 080°10'0 0.0
2015-Apr-09 09:22N 26°06' W 080°10'0 0.0
2015-Apr-09 06:25N 26°06' W 080°10'0 0.0
2015-Apr-09 04:25N 26°06' W 080°10'0 0.0
2015-Apr-09 03:28N 26°06' W 080°10'0 0.0
2015-Apr-09 02:32N 26°06' W 080°10'0 0.0
2015-Apr-09 01:28N 26°06' W 080°10'0 0.0
2015-Apr-09 00:31N 26°06' W 080°10'0 0.0
2015-Apr-08 23:28N 26°06' W 080°10'0 0.0
2015-Apr-08 22:31N 26°06' W 080°10'0 0.0
2015-Apr-08 21:31N 26°06' W 080°10'0 0.0
2015-Apr-08 20:16N 26°06' W 080°10'0 0.0
2015-Apr-08 19:07N 26°06' W 080°10'0 0.0
2015-Apr-08 18:16N 26°06' W 080°10'0 0.0
2015-Apr-08 17:25N 26°06' W 080°10'0 0.0
2015-Apr-08 16:25N 26°06' W 080°10'0 0.0
2015-Apr-08 15:25N 26°06' W 080°10'0 0.0
2015-Apr-08 14:25N 26°06' W 080°10'0 0.0
2015-Apr-08 13:28N 26°06' W 080°10'0 0.0
2015-Apr-08 12:28N 26°06' W 080°10'0 0.0
2015-Apr-08 11:28N 26°06' W 080°10'0 0.0
2015-Apr-08 10:16N 26°06' W 080°10'0 0.0
2015-Apr-08 06:31N 26°06' W 080°10'0 0.0
2015-Apr-08 05:31N 26°06' W 080°10'0 0.0
2015-Apr-08 04:31N 26°06' W 080°10'0 0.0
2015-Apr-08 03:31N 26°06' W 080°10'0 0.0
2015-Apr-07 22:22N 26°06' W 080°10'0 0.0
2015-Apr-07 21:22N 26°06' W 080°10'0 0.0
2015-Apr-07 20:28N 26°06' W 080°10'0 0.0
2015-Apr-07 19:28N 26°06' W 080°10'0 0.0
2015-Apr-07 18:31N 26°06' W 080°10'0 0.0
2015-Apr-07 17:31N 26°06' W 080°10'0 0.0
2015-Apr-07 16:31N 26°06' W 080°10'0 0.0
2015-Apr-07 15:31N 26°06' W 080°10'0 0.0
2015-Apr-07 14:31N 26°06' W 080°10'0 0.0
2015-Apr-07 13:31N 26°06' W 080°10'0 0.0
2015-Apr-07 12:19N 26°06' W 080°10'0 0.0
2015-Apr-07 11:31N 26°06' W 080°10'0 0.0
2015-Apr-07 09:07N 26°06' W 080°10'0 0.0
2015-Apr-07 07:25N 26°06' W 080°10'0 0.0
2015-Apr-07 06:22N 26°06' W 080°10'0 0.0
2015-Apr-07 05:28N 26°06' W 080°10'0 0.0
2015-Apr-07 04:31N 26°06' W 080°10'0 0.0
2015-Apr-07 03:25N 26°06' W 080°10'0 0.0
2015-Apr-07 02:31N 26°06' W 080°10'0 0.0
2015-Apr-07 00:31N 26°06' W 080°10'0 0.0
2015-Apr-06 21:19N 26°06' W 080°10'0 0.0
2015-Apr-06 20:22N 26°06' W 080°10'0 0.0
2015-Apr-06 19:25N 26°06' W 080°10'0 0.0
2015-Apr-06 18:22N 26°06' W 080°10'0 0.0
2015-Apr-06 17:25N 26°06' W 080°10'0 0.0
2015-Apr-06 16:25N 26°06' W 080°10'0 0.0
2015-Apr-06 15:25N 26°06' W 080°10'0 0.0
2015-Apr-06 14:28N 26°06' W 080°10'0 0.0
2015-Apr-06 13:28N 26°06' W 080°10'0 0.0
2015-Apr-06 07:07N 26°06' W 080°10'0 0.0
2015-Apr-06 06:31N 26°06' W 080°10'0 0.0
2015-Apr-06 05:31N 26°06' W 080°10'0 0.0
2015-Apr-06 04:19N 26°06' W 080°10'0 0.0
2015-Apr-06 03:19N 26°06' W 080°10'0 0.0
2015-Apr-06 02:25N 26°06' W 080°10'0 0.0
2015-Apr-06 01:25N 26°06' W 080°10'0 0.0
2015-Apr-06 00:25N 26°06' W 080°10'0 0.0
2015-Apr-05 23:13N 26°06' W 080°10'0 0.0
2015-Apr-05 21:25N 26°06' W 080°10'0 0.0
2015-Apr-05 20:13N 26°06' W 080°10'0 0.0
2015-Apr-05 19:31N 26°06' W 080°10'0 0.0
2015-Apr-05 18:31N 26°06' W 080°10'0 0.0
2015-Apr-05 17:31N 26°06' W 080°10'0 0.0
2015-Apr-05 16:22N 26°06' W 080°10'0 0.0
2015-Apr-05 15:31N 26°06' W 080°10'0 0.0
2015-Apr-05 14:31N 26°06' W 080°10'0 0.0
2015-Apr-05 13:25N 26°06' W 080°10'0 0.0
2015-Apr-05 12:25N 26°06' W 080°10'0 0.0
2015-Apr-05 05:13N 26°06' W 080°10'0 0.0
2015-Apr-05 04:31N 26°06' W 080°10'0 0.0
2015-Apr-05 03:28N 26°06' W 080°10'0 0.0
2015-Apr-05 02:28N 26°06' W 080°10'0 0.0
2015-Apr-05 01:19N 26°06' W 080°10'0 0.0
2015-Apr-05 00:31N 26°06' W 080°10'0 0.0
2015-Apr-04 23:19N 26°06' W 080°10'0 0.0
2015-Apr-04 21:22N 26°06' W 080°10'0 0.0
2015-Apr-04 19:07N 26°06' W 080°10'0 0.0
2015-Apr-04 18:25N 26°06' W 080°10'0 0.0
2015-Apr-04 17:28N 26°06' W 080°10'0 0.0
2015-Apr-04 16:31N 26°06' W 080°10'0 0.0
2015-Apr-04 15:28N 26°06' W 080°10'0 0.0
2015-Apr-04 14:28N 26°06' W 080°10'0 0.0
2015-Apr-04 13:31N 26°06' W 080°10'0 0.0
2015-Apr-04 12:31N 26°06' W 080°10'0 0.0
2015-Apr-04 11:31N 26°06' W 080°10'0 0.0
2015-Apr-04 08:07N 26°06' W 080°10'0 0.0
2015-Apr-04 07:07N 26°06' W 080°10'0 0.0
2015-Apr-04 06:19N 26°06' W 080°10'0 0.0
2015-Apr-04 05:25N 26°06' W 080°10'0 0.0
2015-Apr-04 04:28N 26°06' W 080°10'0 0.0
2015-Apr-04 03:28N 26°06' W 080°10'0 0.0
2015-Apr-04 02:28N 26°06' W 080°10'0 0.0
2015-Apr-04 01:28N 26°06' W 080°10'0 0.0
2015-Apr-04 00:31N 26°06' W 080°10'0 0.0
2015-Apr-03 23:31N 26°06' W 080°10'0 0.0
2015-Apr-03 20:31N 26°06' W 080°10'0 0.0
2015-Apr-03 17:31N 26°06' W 080°10'0 0.0
2015-Apr-03 16:22N 26°06' W 080°10'0 0.0
2015-Apr-03 15:25N 26°06' W 080°10'0 0.0
2015-Apr-03 14:25N 26°06' W 080°10'  
Track history (hours):
 
Tides and Currents Weather Stations Pressure Air Temp Water Temp Dewpoint Dewpoint Depression Visibility Wind Speed Wind Dir Waves Ship Positions

Golden Compass

Last reported at 2015-Apr-13 14:23 UTC. Time now 2015-May-03 16:53 UTC.
Position N 25°47' W 080°04'.
Warning: this ship's position is 20 days out of date.

Length 46 m; draft 2.7 m.

Type: Pleasure craft. MMSI: 538070597.

Date/timePositionNaut miles runAvg speedWind from/ knotsBaromVisibWave heightAir tempDewpointWater temp
2015-Apr-13 14:23N 25°47' W 080°04'8 6.9
2015-Apr-13 13:14N 25°55' W 080°03'5 6.1
2015-Apr-13 12:29N 25°59' W 080°03'5 5.4
2015-Apr-13 11:29N 26°05' W 080°04'4 4.6
2015-Apr-13 10:32N 26°07' W 080°08'2 2.3
2015-Apr-13 09:32N 26°06' W 080°10'0 0.3
2015-Apr-13 08:32N 26°06' W 080°10'0 0.0
2015-Apr-13 07:32N 26°06' W 080°10'0 0.0
2015-Apr-13 06:32N 26°06' W 080°10'0 0.0
2015-Apr-13 05:32N 26°06' W 080°10'0 0.0
2015-Apr-13 04:32N 26°06' W 080°10'0 0.0
2015-Apr-13 03:23N 26°06' W 080°10'0 0.0
2015-Apr-13 02:32N 26°06' W 080°10'0 0.0
2015-Apr-13 01:26N 26°06' W 080°10'0 0.0
2015-Apr-13 00:26N 26°06' W 080°10'0 0.0
2015-Apr-12 23:26N 26°06' W 080°10'0 0.0
2015-Apr-12 22:26N 26°06' W 080°10'0 0.0
2015-Apr-12 21:29N 26°06' W 080°10'0 0.0
2015-Apr-12 20:29N 26°06' W 080°10'0 0.0
2015-Apr-12 19:29N 26°06' W 080°10'0 0.0
2015-Apr-12 18:32N 26°06' W 080°10'0 0.0
2015-Apr-12 17:29N 26°06' W 080°10'0 0.0
2015-Apr-12 16:32N 26°06' W 080°10'0 0.0
2015-Apr-12 15:32N 26°06' W 080°10'0 0.0
2015-Apr-12 14:32N 26°06' W 080°10'0 0.0
2015-Apr-12 13:32N 26°06' W 080°10'0 0.0
2015-Apr-12 12:23N 26°06' W 080°10'0 0.0
2015-Apr-12 11:26N 26°06' W 080°10'0 0.0
2015-Apr-12 10:11N 26°06' W 080°10'0 0.0
2015-Apr-12 09:26N 26°06' W 080°10'0 0.0
2015-Apr-12 08:23N 26°06' W 080°10'0 0.0
2015-Apr-12 07:26N 26°06' W 080°10'0 0.0
2015-Apr-12 06:29N 26°06' W 080°10'0 0.0
2015-Apr-12 05:26N 26°06' W 080°10'0 0.0
2015-Apr-12 04:29N 26°06' W 080°10'0 0.0
2015-Apr-12 03:29N 26°06' W 080°10'0 0.0
2015-Apr-12 02:32N 26°06' W 080°10'0 0.0
2015-Apr-12 01:20N 26°06' W 080°10'0 0.0
2015-Apr-12 00:32N 26°06' W 080°10'0 0.0
2015-Apr-11 23:32N 26°06' W 080°10'0 0.0
2015-Apr-11 22:23N 26°06' W 080°10'0 0.0
2015-Apr-11 21:32N 26°06' W 080°10'0 0.0
2015-Apr-11 20:32N 26°06' W 080°10'0 0.0
2015-Apr-11 19:20N 26°06' W 080°10'0 0.0
2015-Apr-11 18:26N 26°06' W 080°10'0 0.0
2015-Apr-11 17:23N 26°06' W 080°10'0 0.0
2015-Apr-11 16:29N 26°06' W 080°10'0 0.0
2015-Apr-11 15:26N 26°06' W 080°10'0 0.0
2015-Apr-11 14:29N 26°06' W 080°10'0 0.0
2015-Apr-11 13:29N 26°06' W 080°10'0 0.0
2015-Apr-11 12:32N 26°06' W 080°10'0 0.0
2015-Apr-11 11:29N 26°06' W 080°10'0 0.0
2015-Apr-11 10:32N 26°06' W 080°10'0 0.0
2015-Apr-11 09:29N 26°06' W 080°10'0 0.0
2015-Apr-11 08:29N 26°06' W 080°10'0 0.0
2015-Apr-11 07:32N 26°06' W 080°10'0 0.0
2015-Apr-11 06:23N 26°06' W 080°10'0 0.0
2015-Apr-11 04:23N 26°06' W 080°10'0 0.0
2015-Apr-11 03:26N 26°06' W 080°10'0 0.0
2015-Apr-11 02:26N 26°06' W 080°10'0 0.0
2015-Apr-11 01:29N 26°06' W 080°10'0 0.0
2015-Apr-11 00:29N 26°06' W 080°10'0 0.0
2015-Apr-10 23:29N 26°06' W 080°10'0 0.0
2015-Apr-10 22:29N 26°06' W 080°10'0 0.0
2015-Apr-10 21:32N 26°06' W 080°10'0 0.0
2015-Apr-10 20:32N 26°06' W 080°10'0 0.0
2015-Apr-10 19:32N 26°06' W 080°10'0 0.0
2015-Apr-10 18:32N 26°06' W 080°10'0 0.0
2015-Apr-10 17:32N 26°06' W 080°10'0 0.0
2015-Apr-10 16:32N 26°06' W 080°10'0 0.0
2015-Apr-10 15:32N 26°06' W 080°10'0 0.0
2015-Apr-10 14:23N 26°06' W 080°10'0 0.0
2015-Apr-10 13:23N 26°06' W 080°10'0 0.0
2015-Apr-10 12:26N 26°06' W 080°10'0 0.0
2015-Apr-10 11:23N 26°06' W 080°10'0 0.0
2015-Apr-10 10:29N 26°06' W 080°10'0 0.0
2015-Apr-10 09:26N 26°06' W 080°10'0 0.0
2015-Apr-10 08:29N 26°06' W 080°10'0 0.0
2015-Apr-10 07:29N 26°06' W 080°10'0 0.0
2015-Apr-10 06:32N 26°06' W 080°10'0 0.0
2015-Apr-10 05:29N 26°06' W 080°10'0 0.0
2015-Apr-10 04:29N 26°06' W 080°10'0 0.0
2015-Apr-10 03:28N 26°06' W 080°10'0 0.0
2015-Apr-10 02:32N 26°06' W 080°10'0 0.0
2015-Apr-10 01:32N 26°06' W 080°10'0 0.0
2015-Apr-10 00:32N 26°06' W 080°10'0 0.0
2015-Apr-09 23:23N 26°06' W 080°10'0 0.0
2015-Apr-09 22:26N 26°06' W 080°10'0 0.0
2015-Apr-09 21:23N 26°06' W 080°10'0 0.0
2015-Apr-09 20:25N 26°06' W 080°10'0 0.0
2015-Apr-09 19:23N 26°06' W 080°10'0 0.0
2015-Apr-09 18:29N 26°06' W 080°10'0 0.0
2015-Apr-09 17:29N 26°06' W 080°10'0 0.0
2015-Apr-09 16:29N 26°06' W 080°10'0 0.0
2015-Apr-09 15:32N 26°06' W 080°10'0 0.0
2015-Apr-09 14:28N 26°06' W 080°10'0 0.0
2015-Apr-09 13:28N 26°06' W 080°10'0 0.0
2015-Apr-09 12:20N 26°06' W 080°10'0 0.0
2015-Apr-09 11:31N 26°06' W 080°10'0 0.0
2015-Apr-09 10:16N 26°06' W 080°10'0 0.0
2015-Apr-09 09:22N 26°06' W 080°10'0 0.0
2015-Apr-09 06:25N 26°06' W 080°10'0 0.0
2015-Apr-09 04:25N 26°06' W 080°10'0 0.0
2015-Apr-09 03:28N 26°06' W 080°10'0 0.0
2015-Apr-09 02:32N 26°06' W 080°10'0 0.0
2015-Apr-09 01:28N 26°06' W 080°10'0 0.0
2015-Apr-09 00:31N 26°06' W 080°10'0 0.0
2015-Apr-08 23:28N 26°06' W 080°10'0 0.0
2015-Apr-08 22:31N 26°06' W 080°10'0 0.0
2015-Apr-08 21:31N 26°06' W 080°10'0 0.0
2015-Apr-08 20:16N 26°06' W 080°10'0 0.0
2015-Apr-08 19:07N 26°06' W 080°10'0 0.0
2015-Apr-08 18:16N 26°06' W 080°10'0 0.0
2015-Apr-08 17:25N 26°06' W 080°10'0 0.0
2015-Apr-08 16:25N 26°06' W 080°10'0 0.0
2015-Apr-08 15:25N 26°06' W 080°10'0 0.0
2015-Apr-08 14:25N 26°06' W 080°10'0 0.0
2015-Apr-08 13:28N 26°06' W 080°10'0 0.0
2015-Apr-08 12:28N 26°06' W 080°10'0 0.0
2015-Apr-08 11:28N 26°06' W 080°10'0 0.0
2015-Apr-08 10:16N 26°06' W 080°10'0 0.0
2015-Apr-08 06:31N 26°06' W 080°10'0 0.0
2015-Apr-08 05:31N 26°06' W 080°10'0 0.0
2015-Apr-08 04:31N 26°06' W 080°10'0 0.0
2015-Apr-08 03:31N 26°06' W 080°10'0 0.0
2015-Apr-07 22:22N 26°06' W 080°10'0 0.0
2015-Apr-07 21:22N 26°06' W 080°10'0 0.0
2015-Apr-07 20:28N 26°06' W 080°10'0 0.0
2015-Apr-07 19:28N 26°06' W 080°10'0 0.0
2015-Apr-07 18:31N 26°06' W 080°10'0 0.0
2015-Apr-07 17:31N 26°06' W 080°10'0 0.0
2015-Apr-07 16:31N 26°06' W 080°10'0 0.0
2015-Apr-07 15:31N 26°06' W 080°10'0 0.0
2015-Apr-07 14:31N 26°06' W 080°10'0 0.0
2015-Apr-07 13:31N 26°06' W 080°10'0 0.0
2015-Apr-07 12:19N 26°06' W 080°10'0 0.0
2015-Apr-07 11:31N 26°06' W 080°10'0 0.0
2015-Apr-07 09:07N 26°06' W 080°10'0 0.0
2015-Apr-07 07:25N 26°06' W 080°10'0 0.0
2015-Apr-07 06:22N 26°06' W 080°10'0 0.0
2015-Apr-07 05:28N 26°06' W 080°10'0 0.0
2015-Apr-07 04:31N 26°06' W 080°10'0 0.0
2015-Apr-07 03:25N 26°06' W 080°10'0 0.0
2015-Apr-07 02:31N 26°06' W 080°10'0 0.0
2015-Apr-07 00:31N 26°06' W 080°10'0 0.0
2015-Apr-06 21:19N 26°06' W 080°10'0 0.0
2015-Apr-06 20:22N 26°06' W 080°10'0 0.0
2015-Apr-06 19:25N 26°06' W 080°10'0 0.0
2015-Apr-06 18:22N 26°06' W 080°10'0 0.0
2015-Apr-06 17:25N 26°06' W 080°10'0 0.0
2015-Apr-06 16:25N 26°06' W 080°10'0 0.0
2015-Apr-06 15:25N 26°06' W 080°10'0 0.0
2015-Apr-06 14:28N 26°06' W 080°10'0 0.0
2015-Apr-06 13:28N 26°06' W 080°10'0 0.0
2015-Apr-06 07:07N 26°06' W 080°10'0 0.0
2015-Apr-06 06:31N 26°06' W 080°10'0 0.0
2015-Apr-06 05:31N 26°06' W 080°10'0 0.0
2015-Apr-06 04:19N 26°06' W 080°10'0 0.0
2015-Apr-06 03:19N 26°06' W 080°10'0 0.0
2015-Apr-06 02:25N 26°06' W 080°10'0 0.0
2015-Apr-06 01:25N 26°06' W 080°10'0 0.0
2015-Apr-06 00:25N 26°06' W 080°10'0 0.0
2015-Apr-05 23:13N 26°06' W 080°10'0 0.0
2015-Apr-05 21:25N 26°06' W 080°10'0 0.0
2015-Apr-05 20:13N 26°06' W 080°10'0 0.0
2015-Apr-05 19:31N 26°06' W 080°10'0 0.0
2015-Apr-05 18:31N 26°06' W 080°10'0 0.0
2015-Apr-05 17:31N 26°06' W 080°10'0 0.0
2015-Apr-05 16:22N 26°06' W 080°10'0 0.0
2015-Apr-05 15:31N 26°06' W 080°10'0 0.0
2015-Apr-05 14:31N 26°06' W 080°10'0 0.0
2015-Apr-05 13:25N 26°06' W 080°10'0 0.0
2015-Apr-05 12:25N 26°06' W 080°10'0 0.0
2015-Apr-05 05:13N 26°06' W 080°10'0 0.0
2015-Apr-05 04:31N 26°06' W 080°10'0 0.0
2015-Apr-05 03:28N 26°06' W 080°10'0 0.0
2015-Apr-05 02:28N 26°06' W 080°10'0 0.0
2015-Apr-05 01:19N 26°06' W 080°10'0 0.0
2015-Apr-05 00:31N 26°06' W 080°10'0 0.0
2015-Apr-04 23:19N 26°06' W 080°10'0 0.0
2015-Apr-04 21:22N 26°06' W 080°10'0 0.0
2015-Apr-04 19:07N 26°06' W 080°10'0 0.0
2015-Apr-04 18:25N 26°06' W 080°10'0 0.0
2015-Apr-04 17:28N 26°06' W 080°10'0 0.0
2015-Apr-04 16:31N 26°06' W 080°10'0 0.0
2015-Apr-04 15:28N 26°06' W 080°10'0 0.0
2015-Apr-04 14:28N 26°06' W 080°10'0 0.0
2015-Apr-04 13:31N 26°06' W 080°10'0 0.0
2015-Apr-04 12:31N 26°06' W 080°10'0 0.0
2015-Apr-04 11:31N 26°06' W 080°10'0 0.0
2015-Apr-04 08:07N 26°06' W 080°10'0 0.0
2015-Apr-04 07:07N 26°06' W 080°10'0 0.0
2015-Apr-04 06:19N 26°06' W 080°10'0 0.0
2015-Apr-04 05:25N 26°06' W 080°10'0 0.0
2015-Apr-04 04:28N 26°06' W 080°10'0 0.0
2015-Apr-04 03:28N 26°06' W 080°10'0 0.0
2015-Apr-04 02:28N 26°06' W 080°10'0 0.0
2015-Apr-04 01:28N 26°06' W 080°10'0 0.0
2015-Apr-04 00:31N 26°06' W 080°10'0 0.0
2015-Apr-03 23:31N 26°06' W 080°10'0 0.0
2015-Apr-03 20:31N 26°06' W 080°10'0 0.0
2015-Apr-03 17:31N 26°06' W 080°10'0 0.0
2015-Apr-03 16:22N 26°06' W 080°10'0 0.0
2015-Apr-03 15:25N 26°06' W 080°10'0 0.0
2015-Apr-03 14:25N 26°06' W 080°10'  

Dump ship's entire track history